Aérodrome :
LOGIN :

S'inscrire | Disclaimer

   EN    FR    IT 

 










Légende :    VFR   VFR Marginal   IFR   IFR Intensif   IFR Très Intensif
Visi : 
Plafond : 
>= 8 km
>= 3000ft
5 à 8 km
1000 à 3000 ft
1500m à 5 km
500 à 1000 ft
800 à 1500m
200 à 500 ft
< 800m
< 200 ft
Symboles :   Orages  Brouillard  Fortes neiges  Fortes précipitations  Vent > 20 kt
SIGMETs :   Divers  Orages  Givrage  Turbulence  Onde Orograph.  Cendres Volcan.







- Altitude de l'aérodrome : 286 ft
- Code IATA : TRF


ENTO - Sandefjord , Torp

DERNIER METAR :
  • 241120Z 01004KT 9999 +RA SCT011 BKN018TCU BKN031 10/10 Q1002 TEMPO BKN014

METARs EXPIRÉS :
  • 241050Z 21003KT 140V260 9999 SCT016 OVC042 11/07 Q1002 TEMPO BKN014
  • 241020Z 21004KT 170V270 9999 VCSH FEW007 FEW025TCU BKN035 11/07 Q1002 NOSIG
  • 240950Z VRB01KT 9999 FEW015 FEW025TCU BKN035 12/06 Q1002 NOSIG
  • 240920Z 22005KT 140V270 9999 FEW013 SCT026TCU BKN160 12/08 Q1002 NOSIG
  • 240850Z VRB04KT 9999 SCT010 BKN015 11/09 Q1002

TAF TAF ENTO
Valide du 24 à 06h jusqu'au 25 à 06h UTC


2406/2506 18008KT 9000 -RA SCT008 BKN020
TEMPO 2406/2412 4000 SHRA BR BKN008 FEW020CB
BECMG 2412/2414 34010KT
TEMPO 2412/2416 SHRA FEW020CB BKN030
Pas de NOTAMs connus pour ce terrain.



MET'MAP, la Météo Aéronautique d'un coup d'oeil ! - Copyright ORBIFLY Décembre 2007 - Disclaimer

ORBIFLY MET'MAP TEAM :

Programmation & Développement : Alexandra Zaïnal
Conception & Développement : Baudouin d'Aumeries
Co-Programmation & Développement : Marc-Olivier Méhu
Soutien technique & logistique : Manuel Goepfert

Contact : metmap@orbifly.com




SOURCES & CREDITS :

   NOAA